Ryan, Oklahoma
Current Conditions -  °F | °C
As of 6:35 PM on Monday 24 Nov 2014 (Local Time) from K0F2 Reporting Station
Clear Clear  
Wind Chill: 48°   Ceiling: Unl
Heat Index: 48°   Visibility: 10mi
Dew Point: 23°   Wind: 0mph
Humidity: 37%   Direction: NA
Pressure: 30.08"   Gusts: NA
Location:  34.02°N, 97.96°W
Report Text: K0F2 250035Z AUTO 00000KT 10SM CLR 09/M05 A3008 RMK AO2 T00881052
Loading
Personal Weather Stations






























Interactive Weather Map New forecast layout! Learn more

10-Day Weather Forecast

Advertisements
Track Severe Weather on mobile